sensor_id;sensor_type;location;lat;lon;timestamp;pressure;altitude;pressure_sealevel;temperature;humidity
17254;BME280;32542;52.832;13.816;2023-12-14T00:02:28;100546.59;;;21.16;49.68
17254;BME280;32542;52.832;13.816;2023-12-14T00:05:33;100551.94;;;21.16;49.62
17254;BME280;32542;52.832;13.816;2023-12-14T00:08:36;100548.41;;;21.15;49.55
17254;BME280;32542;52.832;13.816;2023-12-14T00:11:40;100558.28;;;21.13;49.46
17254;BME280;32542;52.832;13.816;2023-12-14T00:14:42;100564.59;;;21.11;49.69
17254;BME280;32542;52.832;13.816;2023-12-14T00:17:45;100568.22;;;21.10;49.64
17254;BME280;32542;52.832;13.816;2023-12-14T00:20:49;100570.16;;;21.06;49.58
17254;BME280;32542;52.832;13.816;2023-12-14T00:23:52;100580.91;;;21.05;49.69
17254;BME280;32542;52.832;13.816;2023-12-14T00:26:55;100579.13;;;21.05;49.75
17254;BME280;32542;52.832;13.816;2023-12-14T00:29:58;100587.97;;;21.06;49.66
17254;BME280;32542;52.832;13.816;2023-12-14T00:33:01;100596.88;;;21.05;49.69
17254;BME280;32542;52.832;13.816;2023-12-14T00:36:06;100601.34;;;21.04;49.70
17254;BME280;32542;52.832;13.816;2023-12-14T00:39:09;100605.66;;;21.07;49.58
17254;BME280;32542;52.832;13.816;2023-12-14T00:42:11;100613.72;;;21.05;49.65
17254;BME280;32542;52.832;13.816;2023-12-14T00:45:14;100609.31;;;21.04;49.74
17254;BME280;32542;52.832;13.816;2023-12-14T00:48:17;100619.91;;;21.06;49.62
17254;BME280;32542;52.832;13.816;2023-12-14T00:51:22;100617.09;;;21.09;49.65
17254;BME280;32542;52.832;13.816;2023-12-14T00:54:24;100619.91;;;21.06;49.56
17254;BME280;32542;52.832;13.816;2023-12-14T00:57:27;100624.28;;;21.07;49.58
17254;BME280;32542;52.832;13.816;2023-12-14T01:00:30;100634.00;;;21.08;49.58
17254;BME280;32542;52.832;13.816;2023-12-14T01:03:33;100621.63;;;21.07;49.55
17254;BME280;32542;52.832;13.816;2023-12-14T01:06:37;100630.56;;;21.06;49.57
17254;BME280;32542;52.832;13.816;2023-12-14T01:09:40;100641.28;;;21.04;49.44
17254;BME280;32542;52.832;13.816;2023-12-14T01:12:43;100642.06;;;21.06;49.40
17254;BME280;32542;52.832;13.816;2023-12-14T01:15:45;100645.59;;;21.07;49.34
17254;BME280;32542;52.832;13.816;2023-12-14T01:18:48;100649.13;;;21.07;49.32
17254;BME280;32542;52.832;13.816;2023-12-14T01:21:53;100645.59;;;21.07;49.28
17254;BME280;32542;52.832;13.816;2023-12-14T01:24:56;100658.91;;;21.07;49.37
17254;BME280;32542;52.832;13.816;2023-12-14T01:27:59;100656.22;;;21.07;49.28
17254;BME280;32542;52.832;13.816;2023-12-14T01:31:02;100667.97;;;21.03;49.35
17254;BME280;32542;52.832;13.816;2023-12-14T01:34:05;100672.38;;;21.04;49.37
17254;BME280;32542;52.832;13.816;2023-12-14T01:37:10;100677.72;;;21.04;49.36
17254;BME280;32542;52.832;13.816;2023-12-14T01:40:13;100683.06;;;21.02;49.47
17254;BME280;32542;52.832;13.816;2023-12-14T01:43:16;100683.22;;;20.99;49.56
17254;BME280;32542;52.832;13.816;2023-12-14T01:46:18;100685.16;;;20.95;49.64
17254;BME280;32542;52.832;13.816;2023-12-14T01:49:21;100688.47;;;21.00;49.41
17254;BME280;32542;52.832;13.816;2023-12-14T01:52:25;100695.53;;;21.02;49.34
17254;BME280;32542;52.832;13.816;2023-12-14T01:55:28;100696.38;;;21.02;49.17
17254;BME280;32542;52.832;13.816;2023-12-14T01:58:31;100696.44;;;21.00;49.45
17254;BME280;32542;52.832;13.816;2023-12-14T02:01:38;100705.25;;;21.03;49.32
17254;BME280;32542;52.832;13.816;2023-12-14T02:04:42;100711.44;;;21.03;49.39
17254;BME280;32542;52.832;13.816;2023-12-14T02:07:46;100711.50;;;21.02;49.40
17254;BME280;32542;52.832;13.816;2023-12-14T02:10:49;100721.22;;;21.03;49.42
17254;BME280;32542;52.832;13.816;2023-12-14T02:13:52;100722.16;;;21.02;49.32
17254;BME280;32542;52.832;13.816;2023-12-14T02:16:55;100717.06;;;20.97;49.40
17254;BME280;32542;52.832;13.816;2023-12-14T02:19:58;100716.25;;;20.95;49.76
17254;BME280;32542;52.832;13.816;2023-12-14T02:23:03;100718.84;;;20.96;49.39
17254;BME280;32542;52.832;13.816;2023-12-14T02:26:06;100719.75;;;20.95;49.42
17254;BME280;32542;52.832;13.816;2023-12-14T02:29:09;100717.88;;;20.97;49.39
17254;BME280;32542;52.832;13.816;2023-12-14T02:32:12;100715.16;;;20.99;49.30
17254;BME280;32542;52.832;13.816;2023-12-14T02:35:14;100720.50;;;20.99;49.21
17254;BME280;32542;52.832;13.816;2023-12-14T02:38:21;100725.81;;;20.99;49.24
17254;BME280;32542;52.832;13.816;2023-12-14T02:41:24;100724.94;;;20.98;49.21
17254;BME280;32542;52.832;13.816;2023-12-14T02:44:26;100728.41;;;21.00;49.32
17254;BME280;32542;52.832;13.816;2023-12-14T02:47:29;100726.66;;;20.99;49.33
17254;BME280;32542;52.832;13.816;2023-12-14T02:50:32;100732.16;;;20.96;49.37
17254;BME280;32542;52.832;13.816;2023-12-14T02:53:36;100725.09;;;20.95;49.32
17254;BME280;32542;52.832;13.816;2023-12-14T02:56:39;100727.84;;;20.94;49.48
17254;BME280;32542;52.832;13.816;2023-12-14T02:59:42;100728.78;;;20.93;49.48
17254;BME280;32542;52.832;13.816;2023-12-14T03:02:45;100734.16;;;20.91;49.50
17254;BME280;32542;52.832;13.816;2023-12-14T03:05:48;100732.28;;;20.93;49.44
17254;BME280;32542;52.832;13.816;2023-12-14T03:08:52;100741.22;;;20.92;49.42
17254;BME280;32542;52.832;13.816;2023-12-14T03:11:55;100742.78;;;20.96;49.47
17254;BME280;32542;52.832;13.816;2023-12-14T03:14:58;100744.59;;;20.96;49.40
17254;BME280;32542;52.832;13.816;2023-12-14T03:18:01;100741.06;;;20.95;49.29
17254;BME280;32542;52.832;13.816;2023-12-14T03:21:05;100745.47;;;20.96;49.33
17254;BME280;32542;52.832;13.816;2023-12-14T03:24:09;100749.81;;;20.97;49.29
17254;BME280;32542;52.832;13.816;2023-12-14T03:27:12;100755.16;;;20.97;49.30
17254;BME280;32542;52.832;13.816;2023-12-14T03:30:16;100757.91;;;20.96;49.31
17254;BME280;32542;52.832;13.816;2023-12-14T03:33:19;100771.28;;;20.94;49.36
17254;BME280;32542;52.832;13.816;2023-12-14T03:36:21;100775.75;;;20.94;49.31
17254;BME280;32542;52.832;13.816;2023-12-14T03:39:29;100783.66;;;20.95;49.35
17254;BME280;32542;52.832;13.816;2023-12-14T03:42:32;100788.97;;;20.95;49.27
17254;BME280;32542;52.832;13.816;2023-12-14T03:45:35;100783.50;;;20.98;49.15
17254;BME280;32542;52.832;13.816;2023-12-14T03:48:37;100786.09;;;21.00;48.97
17254;BME280;32542;52.832;13.816;2023-12-14T03:51:40;100793.09;;;21.03;48.85
17254;BME280;32542;52.832;13.816;2023-12-14T03:54:45;100800.19;;;21.04;48.92
17254;BME280;32542;52.832;13.816;2023-12-14T03:57:47;100799.31;;;21.03;48.74
17254;BME280;32542;52.832;13.816;2023-12-14T04:00:50;100806.28;;;21.06;48.68
17254;BME280;32542;52.832;13.816;2023-12-14T04:03:54;100822.25;;;21.06;48.67
17254;BME280;32542;52.832;13.816;2023-12-14T04:06:56;100823.09;;;21.06;48.64
17254;BME280;32542;52.832;13.816;2023-12-14T04:10:01;100825.72;;;21.08;48.71
17254;BME280;32542;52.832;13.816;2023-12-14T04:13:03;100831.03;;;21.08;48.73
17254;BME280;32542;52.832;13.816;2023-12-14T04:16:06;100831.88;;;21.08;48.70
17254;BME280;32542;52.832;13.816;2023-12-14T04:19:09;100829.22;;;21.08;48.66
17254;BME280;32542;52.832;13.816;2023-12-14T04:22:12;100841.59;;;21.09;48.71
17254;BME280;32542;52.832;13.816;2023-12-14T04:25:16;100849.59;;;21.09;48.75
17254;BME280;32542;52.832;13.816;2023-12-14T04:28:19;100861.13;;;21.10;48.65
17254;BME280;32542;52.832;13.816;2023-12-14T04:31:22;100861.13;;;21.10;48.77
17254;BME280;32542;52.832;13.816;2023-12-14T04:34:25;100856.63;;;21.10;48.67
17254;BME280;32542;52.832;13.816;2023-12-14T04:37:28;100865.50;;;21.11;48.70
17254;BME280;32542;52.832;13.816;2023-12-14T04:40:33;100862.81;;;21.11;48.64
17254;BME280;32542;52.832;13.816;2023-12-14T04:43:36;100872.56;;;21.12;48.68
17254;BME280;32542;52.832;13.816;2023-12-14T04:46:39;100875.22;;;21.12;48.66
17254;BME280;32542;52.832;13.816;2023-12-14T04:49:42;100870.75;;;21.12;48.66
17254;BME280;32542;52.832;13.816;2023-12-14T04:52:45;100877.88;;;21.12;48.59
17254;BME280;32542;52.832;13.816;2023-12-14T04:55:49;100882.25;;;21.13;48.65
17254;BME280;32542;52.832;13.816;2023-12-14T04:58:52;100880.53;;;21.12;48.60
17254;BME280;32542;52.832;13.816;2023-12-14T05:01:55;100884.06;;;21.12;48.67
17254;BME280;32542;52.832;13.816;2023-12-14T05:04:58;100890.25;;;21.13;48.58
17254;BME280;32542;52.832;13.816;2023-12-14T05:08:01;100899.97;;;21.14;48.58
17254;BME280;32542;52.832;13.816;2023-12-14T05:11:05;100893.78;;;21.13;48.61
17254;BME280;32542;52.832;13.816;2023-12-14T05:14:08;100898.19;;;21.14;48.57
17254;BME280;32542;52.832;13.816;2023-12-14T05:17:11;100899.97;;;21.14;48.60
17254;BME280;32542;52.832;13.816;2023-12-14T05:20:14;100907.88;;;21.15;48.57
17254;BME280;32542;52.832;13.816;2023-12-14T05:23:17;100910.63;;;21.14;48.51
17254;BME280;32542;52.832;13.816;2023-12-14T05:26:21;100911.50;;;21.14;48.66
17254;BME280;32542;52.832;13.816;2023-12-14T05:29:24;100918.63;;;21.14;48.56
17254;BME280;32542;52.832;13.816;2023-12-14T05:32:27;100934.59;;;21.14;48.65
17254;BME280;32542;52.832;13.816;2023-12-14T05:35:30;100939.03;;;21.13;48.52
17254;BME280;32542;52.832;13.816;2023-12-14T05:38:34;100950.56;;;21.14;48.60
17254;BME280;32542;52.832;13.816;2023-12-14T05:41:40;100957.69;;;21.13;48.48
17254;BME280;32542;52.832;13.816;2023-12-14T05:44:43;100954.16;;;21.13;48.56
17254;BME280;32542;52.832;13.816;2023-12-14T05:47:47;100963.88;;;21.14;48.49
17254;BME280;32542;52.832;13.816;2023-12-14T05:50:51;100970.09;;;21.14;48.49
17254;BME280;32542;52.832;13.816;2023-12-14T05:53:54;100964.75;;;21.14;48.49
17254;BME280;32542;52.832;13.816;2023-12-14T05:56:58;100970.91;;;21.15;48.58
17254;BME280;32542;52.832;13.816;2023-12-14T06:00:01;100986.91;;;21.15;48.54
17254;BME280;32542;52.832;13.816;2023-12-14T06:03:05;100995.84;;;21.14;48.54
17254;BME280;32542;52.832;13.816;2023-12-14T06:06:08;101002.03;;;21.14;48.42
17254;BME280;32542;52.832;13.816;2023-12-14T06:09:11;101003.81;;;21.14;48.51
17254;BME280;32542;52.832;13.816;2023-12-14T06:12:15;101002.09;;;21.13;48.55
17254;BME280;32542;52.832;13.816;2023-12-14T06:15:18;101002.97;;;21.13;48.47
17254;BME280;32542;52.832;13.816;2023-12-14T06:18:21;101006.50;;;21.14;48.51
17254;BME280;32542;52.832;13.816;2023-12-14T06:21:24;101013.69;;;21.12;48.48
17254;BME280;32542;52.832;13.816;2023-12-14T06:24:30;101021.69;;;21.12;48.51
17254;BME280;32542;52.832;13.816;2023-12-14T06:27:34;101023.38;;;21.13;48.54
17254;BME280;32542;52.832;13.816;2023-12-14T06:30:37;101031.38;;;21.13;48.48
17254;BME280;32542;52.832;13.816;2023-12-14T06:33:40;101043.78;;;21.14;48.53
17254;BME280;32542;52.832;13.816;2023-12-14T06:36:45;101043.78;;;21.14;48.44
17254;BME280;32542;52.832;13.816;2023-12-14T06:39:48;101043.78;;;21.14;48.48
17254;BME280;32542;52.832;13.816;2023-12-14T06:42:52;101045.56;;;21.13;48.43
17254;BME280;32542;52.832;13.816;2023-12-14T06:45:55;101051.84;;;21.12;48.53
17254;BME280;32542;52.832;13.816;2023-12-14T06:48:57;101058.00;;;21.13;48.51
17254;BME280;32542;52.832;13.816;2023-12-14T06:52:00;101063.34;;;21.13;48.57
17254;BME280;32542;52.832;13.816;2023-12-14T06:55:04;101068.66;;;21.13;48.59
17254;BME280;32542;52.832;13.816;2023-12-14T06:58:09;101071.41;;;21.11;48.48
17254;BME280;32542;52.832;13.816;2023-12-14T07:01:13;101076.72;;;21.11;48.41
17254;BME280;32542;52.832;13.816;2023-12-14T07:04:16;101078.47;;;21.12;48.44
17254;BME280;32542;52.832;13.816;2023-12-14T07:07:21;101089.13;;;21.12;48.48
17254;BME280;32542;52.832;13.816;2023-12-14T07:10:24;101089.13;;;21.12;48.51
17254;BME280;32542;52.832;13.816;2023-12-14T07:13:28;101104.16;;;21.13;48.57
17254;BME280;32542;52.832;13.816;2023-12-14T07:16:31;101105.94;;;21.13;48.46
17254;BME280;32542;52.832;13.816;2023-12-14T07:19:34;101119.25;;;21.13;48.45
17254;BME280;32542;52.832;13.816;2023-12-14T07:22:37;101118.34;;;21.14;48.30
17254;BME280;32542;52.832;13.816;2023-12-14T07:25:40;101128.19;;;21.12;48.47
17254;BME280;32542;52.832;13.816;2023-12-14T07:28:44;101131.72;;;21.12;48.42
17254;BME280;32542;52.832;13.816;2023-12-14T07:31:47;101142.38;;;21.12;48.41
17254;BME280;32542;52.832;13.816;2023-12-14T07:34:51;101141.50;;;21.12;48.56
17254;BME280;32542;52.832;13.816;2023-12-14T07:37:54;101137.06;;;21.12;48.55
17254;BME280;32542;52.832;13.816;2023-12-14T07:40:57;101151.28;;;21.11;48.47
17254;BME280;32542;52.832;13.816;2023-12-14T07:44:01;101148.53;;;21.13;48.39
17254;BME280;32542;52.832;13.816;2023-12-14T07:47:07;101148.53;;;21.13;48.39
17254;BME280;32542;52.832;13.816;2023-12-14T07:50:10;101148.53;;;21.13;48.47
17254;BME280;32542;52.832;13.816;2023-12-14T07:53:13;101157.34;;;21.15;48.53
17254;BME280;32542;52.832;13.816;2023-12-14T07:56:16;101162.66;;;21.15;48.50
17254;BME280;32542;52.832;13.816;2023-12-14T07:59:20;101167.16;;;21.14;48.48
17254;BME280;32542;52.832;13.816;2023-12-14T08:02:23;101173.31;;;21.15;48.50
17254;BME280;32542;52.832;13.816;2023-12-14T08:05:26;101175.97;;;21.15;48.53
17254;BME280;32542;52.832;13.816;2023-12-14T08:08:29;101182.25;;;21.14;48.56
17254;BME280;32542;52.832;13.816;2023-12-14T08:11:33;101192.81;;;21.15;48.51
17254;BME280;32542;52.832;13.816;2023-12-14T08:14:37;101199.09;;;21.14;48.48
17254;BME280;32542;52.832;13.816;2023-12-14T08:17:44;101209.69;;;21.16;48.45
17254;BME280;32542;52.832;13.816;2023-12-14T08:20:47;101221.22;;;21.16;48.49
17254;BME280;32542;52.832;13.816;2023-12-14T08:23:50;101216.81;;;21.15;48.49
17254;BME280;32542;52.832;13.816;2023-12-14T08:26:53;101225.66;;;21.16;48.49
17254;BME280;32542;52.832;13.816;2023-12-14T08:29:57;101231.88;;;21.16;48.39
17254;BME280;32542;52.832;13.816;2023-12-14T08:33:00;101234.53;;;21.16;48.44
17254;BME280;32542;52.832;13.816;2023-12-14T08:36:04;101241.56;;;21.17;48.31
17254;BME280;32542;52.832;13.816;2023-12-14T08:39:07;101239.84;;;21.16;48.42
17254;BME280;32542;52.832;13.816;2023-12-14T08:42:11;101247.84;;;21.16;48.42
17254;BME280;32542;52.832;13.816;2023-12-14T08:45:16;101244.31;;;21.16;48.44
17254;BME280;32542;52.832;13.816;2023-12-14T08:48:18;101254.09;;;21.15;48.43
17254;BME280;32542;52.832;13.816;2023-12-14T08:51:21;101257.69;;;21.14;48.29
17254;BME280;32542;52.832;13.816;2023-12-14T08:54:26;101262.16;;;21.14;48.34
17254;BME280;32542;52.832;13.816;2023-12-14T08:57:29;101271.94;;;21.13;48.40
17254;BME280;32542;52.832;13.816;2023-12-14T09:00:34;101279.91;;;21.13;48.46
17254;BME280;32542;52.832;13.816;2023-12-14T09:03:37;101287.03;;;21.13;48.38
17254;BME280;32542;52.832;13.816;2023-12-14T09:06:40;101299.44;;;21.14;48.35
17254;BME280;32542;52.832;13.816;2023-12-14T09:09:46;101303.88;;;21.13;48.37
17254;BME280;32542;52.832;13.816;2023-12-14T09:12:49;101305.63;;;21.14;48.50
17254;BME280;32542;52.832;13.816;2023-12-14T09:15:53;101301.22;;;21.13;48.35
17254;BME280;32542;52.832;13.816;2023-12-14T09:18:56;101303.81;;;21.15;48.31
17254;BME280;32542;52.832;13.816;2023-12-14T09:21:59;101315.41;;;21.14;48.43
17254;BME280;32542;52.832;13.816;2023-12-14T09:25:02;101317.13;;;21.15;48.32
17254;BME280;32542;52.832;13.816;2023-12-14T09:28:05;101320.75;;;21.14;48.36
17254;BME280;32542;52.832;13.816;2023-12-14T09:31:09;101319.88;;;21.13;48.42
17254;BME280;32542;52.832;13.816;2023-12-14T09:34:12;101324.31;;;21.13;48.43
17254;BME280;32542;52.832;13.816;2023-12-14T09:37:15;101330.59;;;21.12;48.53
17254;BME280;32542;52.832;13.816;2023-12-14T09:40:18;101333.25;;;21.12;48.46
17254;BME280;32542;52.832;13.816;2023-12-14T09:43:21;101338.56;;;21.12;48.44
17254;BME280;32542;52.832;13.816;2023-12-14T09:46:27;101334.06;;;21.14;48.49
17254;BME280;32542;52.832;13.816;2023-12-14T09:49:30;101334.97;;;21.13;48.50
17254;BME280;32542;52.832;13.816;2023-12-14T09:52:33;101341.09;;;21.15;48.42
17254;BME280;32542;52.832;13.816;2023-12-14T09:55:36;101349.97;;;21.15;48.35
17254;BME280;32542;52.832;13.816;2023-12-14T09:58:39;101350.84;;;21.16;48.27
17254;BME280;32542;52.832;13.816;2023-12-14T10:01:43;101349.09;;;21.15;48.33
17254;BME280;32542;52.832;13.816;2023-12-14T10:04:47;101347.31;;;21.15;48.38
17254;BME280;32542;52.832;13.816;2023-12-14T10:07:51;101348.25;;;21.14;48.39
17254;BME280;32542;52.832;13.816;2023-12-14T10:10:55;101358.03;;;21.14;48.35
17254;BME280;32542;52.832;13.816;2023-12-14T10:13:58;101363.34;;;21.14;48.39
17254;BME280;32542;52.832;13.816;2023-12-14T10:17:16;101370.41;;;21.15;48.30
17254;BME280;32542;52.832;13.816;2023-12-14T10:20:19;101368.69;;;21.14;48.46
17254;BME280;32542;52.832;13.816;2023-12-14T10:23:23;101374.00;;;21.14;48.33
17254;BME280;32542;52.832;13.816;2023-12-14T10:26:26;101374.00;;;21.14;48.32
17254;BME280;32542;52.832;13.816;2023-12-14T10:29:32;101380.13;;;21.16;48.42
17254;BME280;32542;52.832;13.816;2023-12-14T10:32:37;101389.91;;;21.15;48.38
17254;BME280;32542;52.832;13.816;2023-12-14T10:35:41;101388.13;;;21.16;48.26
17254;BME280;32542;52.832;13.816;2023-12-14T10:38:48;101390.78;;;21.16;48.23
17254;BME280;32542;52.832;13.816;2023-12-14T10:41:52;101386.38;;;21.15;48.04
17254;BME280;32542;52.832;13.816;2023-12-14T10:45:11;101392.66;;;21.14;47.67
17254;BME280;32542;52.832;13.816;2023-12-14T10:48:22;101396.22;;;21.13;47.33
17254;BME280;32542;52.832;13.816;2023-12-14T10:51:25;101406.88;;;21.13;47.34
17254;BME280;32542;52.832;13.816;2023-12-14T10:54:32;101390.09;;;21.11;47.08
17254;BME280;32542;52.832;13.816;2023-12-14T10:57:38;101406.22;;;21.08;46.06
17254;BME280;32542;52.832;13.816;2023-12-14T11:00:58;101400.97;;;21.05;44.79
17254;BME280;32542;52.832;13.816;2023-12-14T11:04:03;101397.59;;;20.99;43.45
17254;BME280;32542;52.832;13.816;2023-12-14T11:07:07;101403.03;;;20.96;42.83
17254;BME280;32542;52.832;13.816;2023-12-14T11:10:10;101413.81;;;20.93;42.42
17254;BME280;32542;52.832;13.816;2023-12-14T11:13:13;101405.00;;;20.91;42.61
17254;BME280;32542;52.832;13.816;2023-12-14T11:16:17;101401.28;;;20.95;41.77
17254;BME280;32542;52.832;13.816;2023-12-14T11:19:28;101408.16;;;21.03;41.70
17254;BME280;32542;52.832;13.816;2023-12-14T11:22:33;101407.84;;;21.10;41.95
17254;BME280;32542;52.832;13.816;2023-12-14T11:25:36;101411.16;;;21.17;41.95
17254;BME280;32542;52.832;13.816;2023-12-14T11:28:48;101430.38;;;21.25;42.06
17254;BME280;32542;52.832;13.816;2023-12-14T11:31:51;101434.59;;;21.30;42.27
17254;BME280;32542;52.832;13.816;2023-12-14T11:34:56;101444.13;;;21.36;42.37
17254;BME280;32542;52.832;13.816;2023-12-14T11:37:59;101443.16;;;21.38;42.59
17254;BME280;32542;52.832;13.816;2023-12-14T11:41:04;101449.28;;;21.40;42.67
17254;BME280;32542;52.832;13.816;2023-12-14T11:44:07;101455.50;;;21.41;43.00
17254;BME280;32542;52.832;13.816;2023-12-14T11:47:10;101449.25;;;21.42;43.22
17254;BME280;32542;52.832;13.816;2023-12-14T11:50:15;101458.03;;;21.44;43.44
17254;BME280;32542;52.832;13.816;2023-12-14T11:53:18;101462.44;;;21.45;43.64
17254;BME280;32542;52.832;13.816;2023-12-14T11:56:21;101472.16;;;21.46;43.88
17254;BME280;32542;52.832;13.816;2023-12-14T11:59:26;101481.00;;;21.46;43.92
17254;BME280;32542;52.832;13.816;2023-12-14T12:02:29;101478.34;;;21.46;44.09
17254;BME280;32542;52.832;13.816;2023-12-14T12:05:37;101477.50;;;21.46;44.22
17254;BME280;32542;52.832;13.816;2023-12-14T12:08:41;101482.84;;;21.46;44.37
17254;BME280;32542;52.832;13.816;2023-12-14T12:11:45;101484.69;;;21.44;44.53
17254;BME280;32542;52.832;13.816;2023-12-14T12:14:50;101486.41;;;21.45;44.58
17254;BME280;32542;52.832;13.816;2023-12-14T12:17:55;101482.06;;;21.42;44.65
17254;BME280;32542;52.832;13.816;2023-12-14T12:20:59;101490.13;;;21.41;44.84
17254;BME280;32542;52.832;13.816;2023-12-14T12:24:05;101489.25;;;21.40;44.85
17254;BME280;32542;52.832;13.816;2023-12-14T12:27:26;101496.38;;;21.40;45.06
17254;BME280;32542;52.832;13.816;2023-12-14T12:30:29;101493.78;;;21.38;45.25
17254;BME280;32542;52.832;13.816;2023-12-14T12:33:32;101495.56;;;21.38;45.35
17254;BME280;32542;52.832;13.816;2023-12-14T12:36:40;101490.38;;;21.35;45.69
17254;BME280;32542;52.832;13.816;2023-12-14T12:39:43;101495.69;;;21.35;45.77
17254;BME280;32542;52.832;13.816;2023-12-14T12:42:46;101497.56;;;21.33;45.91
17254;BME280;32542;52.832;13.816;2023-12-14T12:45:50;101496.69;;;21.32;46.00
17254;BME280;32542;52.832;13.816;2023-12-14T12:48:53;101508.22;;;21.33;46.88
17254;BME280;32542;52.832;13.816;2023-12-14T12:51:57;101508.28;;;21.31;46.57
17254;BME280;32542;52.832;13.816;2023-12-14T12:55:00;101526.94;;;21.31;46.44
17254;BME280;32542;52.832;13.816;2023-12-14T12:58:03;101530.50;;;21.30;nan
17254;BME280;32542;52.832;13.816;2023-12-14T13:01:08;101529.63;;;21.30;46.52
17254;BME280;32542;52.832;13.816;2023-12-14T13:04:18;101545.59;;;21.30;46.62
17254;BME280;32542;52.832;13.816;2023-12-14T13:07:23;101548.28;;;21.30;46.70
17254;BME280;32542;52.832;13.816;2023-12-14T13:10:26;101558.94;;;21.30;46.83
17254;BME280;32542;52.832;13.816;2023-12-14T13:13:33;101557.16;;;21.30;46.86
17254;BME280;32542;52.832;13.816;2023-12-14T13:16:36;101559.00;;;21.28;46.93
17254;BME280;32542;52.832;13.816;2023-12-14T13:19:39;101574.09;;;21.28;47.08
17254;BME280;32542;52.832;13.816;2023-12-14T13:22:43;101580.31;;;21.28;47.16
17254;BME280;32542;52.832;13.816;2023-12-14T13:25:46;101572.38;;;21.27;47.13
17254;BME280;32542;52.832;13.816;2023-12-14T13:28:49;101575.97;;;21.26;47.31
17254;BME280;32542;52.832;13.816;2023-12-14T13:31:52;101579.56;;;21.25;47.36
17254;BME280;32542;52.832;13.816;2023-12-14T13:34:54;101583.13;;;21.24;47.48
17254;BME280;32542;52.832;13.816;2023-12-14T13:37:59;101596.47;;;21.24;47.43
17254;BME280;32542;52.832;13.816;2023-12-14T13:41:02;101602.72;;;21.23;47.44
17254;BME280;32542;52.832;13.816;2023-12-14T13:44:05;101615.09;;;21.24;47.40
17254;BME280;32542;52.832;13.816;2023-12-14T13:47:08;101615.97;;;21.24;47.58
17254;BME280;32542;52.832;13.816;2023-12-14T13:50:12;101627.50;;;21.25;47.55
17254;BME280;32542;52.832;13.816;2023-12-14T13:53:16;101629.25;;;21.26;47.53
17254;BME280;32542;52.832;13.816;2023-12-14T13:56:20;101638.97;;;21.27;47.71
17254;BME280;32542;52.832;13.816;2023-12-14T13:59:23;101638.16;;;21.25;47.65
17254;BME280;32542;52.832;13.816;2023-12-14T14:02:27;101647.94;;;21.24;47.81
17254;BME280;32542;52.832;13.816;2023-12-14T14:05:30;101659.47;;;21.25;47.74
17254;BME280;32542;52.832;13.816;2023-12-14T14:08:35;101655.00;;;21.25;47.71
17254;BME280;32542;52.832;13.816;2023-12-14T14:11:38;101667.47;;;21.25;47.70
17254;BME280;32542;52.832;13.816;2023-12-14T14:14:43;101668.31;;;21.25;47.78
17254;BME280;32542;52.832;13.816;2023-12-14T14:17:46;101675.41;;;21.26;47.71
17254;BME280;32542;52.832;13.816;2023-12-14T14:20:53;101687.84;;;21.26;47.66
17254;BME280;32542;52.832;13.816;2023-12-14T14:23:57;101686.06;;;21.26;47.54
17254;BME280;32542;52.832;13.816;2023-12-14T14:27:00;101699.31;;;21.28;47.53
17254;BME280;32542;52.832;13.816;2023-12-14T14:30:04;101696.66;;;21.28;47.59
17254;BME280;32542;52.832;13.816;2023-12-14T14:33:07;101698.44;;;21.27;47.60
17254;BME280;32542;52.832;13.816;2023-12-14T14:36:10;101698.41;;;21.29;47.65
17254;BME280;32542;52.832;13.816;2023-12-14T14:39:14;101706.44;;;21.27;47.68
17254;BME280;32542;52.832;13.816;2023-12-14T14:42:19;101721.56;;;21.27;47.74
17254;BME280;32542;52.832;13.816;2023-12-14T14:45:22;101727.75;;;21.27;47.69
17254;BME280;32542;52.832;13.816;2023-12-14T14:48:25;101742.88;;;21.27;47.82
17254;BME280;32542;52.832;13.816;2023-12-14T14:51:28;101739.34;;;21.26;47.84
17254;BME280;32542;52.832;13.816;2023-12-14T14:54:33;101748.22;;;21.27;47.89
17254;BME280;32542;52.832;13.816;2023-12-14T14:57:35;101746.41;;;21.27;47.87
17254;BME280;32542;52.832;13.816;2023-12-14T15:00:39;101746.44;;;21.26;47.83
17254;BME280;32542;52.832;13.816;2023-12-14T15:03:41;101752.66;;;21.26;47.87
17254;BME280;32542;52.832;13.816;2023-12-14T15:06:44;101761.53;;;21.27;47.93
17254;BME280;32542;52.832;13.816;2023-12-14T15:09:49;101760.59;;;21.28;47.96
17254;BME280;32542;52.832;13.816;2023-12-14T15:12:51;101766.84;;;21.27;48.05
17254;BME280;32542;52.832;13.816;2023-12-14T15:15:54;101774.84;;;21.27;48.08
17254;BME280;32542;52.832;13.816;2023-12-14T15:18:57;101779.31;;;21.26;47.99
17254;BME280;32542;52.832;13.816;2023-12-14T15:22:00;101783.75;;;21.26;48.01
17254;BME280;32542;52.832;13.816;2023-12-14T15:25:05;101786.41;;;21.26;47.95
17254;BME280;32542;52.832;13.816;2023-12-14T15:28:08;101777.59;;;21.24;48.08
17254;BME280;32542;52.832;13.816;2023-12-14T15:31:11;101780.28;;;21.24;48.15
17254;BME280;32542;52.832;13.816;2023-12-14T15:34:14;101775.88;;;21.23;48.08
17254;BME280;32542;52.832;13.816;2023-12-14T15:37:17;101779.38;;;21.23;48.07
17254;BME280;32542;52.832;13.816;2023-12-14T15:40:21;101793.59;;;21.24;48.13
17254;BME280;32542;52.832;13.816;2023-12-14T15:43:24;101790.91;;;21.24;48.04
17254;BME280;32542;52.832;13.816;2023-12-14T15:46:27;101798.91;;;21.24;48.00
17254;BME280;32542;52.832;13.816;2023-12-14T15:49:30;101809.56;;;21.24;48.04